createdAt,value
2022-10-14T00:00:09.741Z,49.87
2022-10-14T00:01:09.981Z,49.87
2022-10-14T00:02:10.265Z,49.87
2022-10-14T00:03:10.510Z,49.87
2022-10-14T00:04:10.749Z,49.87
2022-10-14T00:05:11.001Z,49.87
2022-10-14T00:06:11.243Z,49.87
2022-10-14T00:07:11.486Z,49.87
2022-10-14T00:08:11.723Z,49.87
2022-10-14T00:09:11.964Z,49.87
2022-10-14T00:10:12.216Z,49.87
2022-10-14T00:11:12.463Z,49.87
2022-10-14T00:12:12.706Z,49.87
2022-10-14T00:13:12.947Z,49.87
2022-10-14T00:14:13.185Z,49.87
2022-10-14T00:15:13.438Z,49.87
2022-10-14T00:16:13.677Z,49.77
2022-10-14T00:17:13.927Z,49.77
2022-10-14T00:18:14.167Z,49.75
2022-10-14T00:19:14.410Z,49.75
2022-10-14T00:20:14.658Z,49.75
2022-10-14T00:21:14.899Z,49.75
2022-10-14T00:22:15.138Z,49.75
2022-10-14T00:23:15.380Z,49.75
2022-10-14T00:24:15.619Z,49.75
2022-10-14T00:25:15.877Z,49.75
2022-10-14T00:26:16.158Z,49.75
2022-10-14T00:27:16.399Z,49.75
2022-10-14T00:28:16.695Z,49.75
2022-10-14T00:29:16.921Z,49.75
2022-10-14T00:30:17.170Z,49.75
2022-10-14T00:31:17.441Z,49.75
2022-10-14T00:32:17.662Z,49.75
2022-10-14T00:33:17.901Z,49.75
2022-10-14T00:34:18.142Z,49.75
2022-10-14T00:35:18.442Z,49.75
2022-10-14T00:36:18.691Z,49.75
2022-10-14T00:37:19.219Z,49.75
2022-10-14T00:38:19.246Z,49.75
2022-10-14T00:39:19.483Z,49.75
2022-10-14T00:40:19.735Z,49.75
2022-10-14T00:41:19.973Z,49.75
2022-10-14T00:42:20.222Z,49.75
2022-10-14T00:43:20.465Z,49.75
2022-10-14T00:44:20.706Z,49.65
2022-10-14T00:45:20.954Z,49.75
2022-10-14T00:46:21.235Z,49.75
2022-10-14T00:47:21.681Z,49.75
2022-10-14T00:48:21.806Z,49.65
2022-10-14T00:49:22.058Z,49.75
2022-10-14T00:50:22.297Z,49.75
2022-10-14T00:51:22.547Z,49.75
2022-10-14T00:52:22.787Z,49.75
2022-10-14T00:53:23.027Z,49.75
2022-10-14T00:54:23.278Z,49.75
2022-10-14T00:55:23.521Z,49.75
2022-10-14T00:56:23.766Z,49.75
2022-10-14T00:57:24.279Z,49.75
2022-10-14T00:58:24.277Z,49.75
2022-10-14T00:59:24.519Z,49.75
2022-10-14T01:00:24.843Z,49.75
2022-10-14T01:01:25.039Z,49.75
2022-10-14T01:02:25.290Z,49.65
2022-10-14T01:03:25.530Z,49.75
2022-10-14T01:04:25.778Z,49.75
2022-10-14T01:05:26.020Z,49.75
2022-10-14T01:06:26.268Z,49.75
2022-10-14T01:07:26.521Z,49.65
2022-10-14T01:08:26.763Z,49.65
2022-10-14T01:09:27.012Z,49.65
2022-10-14T01:10:27.263Z,49.65
2022-10-14T01:11:27.504Z,49.75
2022-10-14T01:12:29.616Z,49.65
2022-10-14T01:13:28.023Z,49.65
2022-10-14T01:14:28.265Z,49.65
2022-10-14T01:15:28.535Z,49.65
2022-10-14T01:16:28.782Z,49.65
2022-10-14T01:17:29.017Z,49.65
2022-10-14T01:18:29.264Z,49.65
2022-10-14T01:19:29.505Z,49.65
2022-10-14T01:20:29.754Z,49.65
2022-10-14T01:21:29.998Z,49.65
2022-10-14T01:22:30.237Z,49.65
2022-10-14T01:23:30.477Z,49.65
2022-10-14T01:24:30.725Z,49.65
2022-10-14T01:25:30.968Z,49.65
2022-10-14T01:26:31.208Z,49.65
2022-10-14T01:27:31.456Z,49.65
2022-10-14T01:28:31.735Z,49.65
2022-10-14T01:29:31.989Z,49.65
2022-10-14T01:30:32.238Z,49.65
2022-10-14T01:31:32.481Z,49.65
2022-10-14T01:32:32.719Z,49.65
2022-10-14T01:33:32.966Z,49.65
2022-10-14T01:34:33.209Z,49.65
2022-10-14T01:35:33.472Z,49.65
2022-10-14T01:36:33.718Z,49.65
2022-10-14T01:37:33.959Z,49.65
2022-10-14T01:38:34.203Z,49.65
2022-10-14T01:39:34.441Z,49.65
2022-10-14T01:40:34.689Z,49.65
2022-10-14T01:41:34.933Z,49.65
2022-10-14T01:42:35.181Z,49.65
2022-10-14T01:43:35.423Z,49.65
2022-10-14T01:44:35.681Z,49.65
2022-10-14T01:45:35.923Z,49.65
2022-10-14T01:46:36.173Z,49.65
2022-10-14T01:47:36.413Z,49.65
2022-10-14T01:48:36.664Z,49.65
2022-10-14T01:49:36.904Z,49.65
2022-10-14T01:50:37.159Z,49.65
2022-10-14T01:51:37.402Z,49.65
2022-10-14T01:52:37.646Z,49.65
2022-10-14T01:53:37.893Z,49.65
2022-10-14T01:54:38.145Z,49.65
2022-10-14T01:55:38.393Z,49.65
2022-10-14T01:56:40.725Z,49.65
2022-10-14T01:57:38.974Z,49.65
2022-10-14T01:58:39.217Z,49.65
2022-10-14T01:59:39.469Z,49.65
2022-10-14T02:00:39.731Z,49.65
2022-10-14T02:01:40.018Z,49.65
2022-10-14T02:02:40.237Z,49.65
2022-10-14T02:03:40.477Z,49.65
2022-10-14T02:04:40.721Z,49.65
2022-10-14T02:05:40.959Z,49.65
2022-10-14T02:06:41.210Z,49.65
2022-10-14T02:07:41.451Z,49.65
2022-10-14T02:08:41.690Z,49.65
2022-10-14T02:09:41.940Z,49.65
2022-10-14T02:10:42.190Z,49.65
2022-10-14T02:11:42.431Z,49.65
2022-10-14T02:12:42.679Z,49.65
2022-10-14T02:13:42.921Z,49.65
2022-10-14T02:14:43.171Z,49.65
2022-10-14T02:15:43.422Z,49.65
2022-10-14T02:16:43.675Z,49.65
2022-10-14T02:17:43.912Z,49.65
2022-10-14T02:18:44.152Z,49.65
2022-10-14T02:19:44.423Z,49.65
2022-10-14T02:20:44.672Z,49.65
2022-10-14T02:21:44.913Z,49.65
2022-10-14T02:22:45.167Z,49.65
2022-10-14T02:23:45.403Z,49.65
2022-10-14T02:24:45.695Z,49.65
2022-10-14T02:25:45.942Z,49.65
2022-10-14T02:26:46.194Z,49.65
2022-10-14T02:27:46.434Z,49.65
2022-10-14T02:28:46.743Z,49.65
2022-10-14T02:29:46.965Z,49.65
2022-10-14T02:30:47.226Z,49.65
2022-10-14T02:31:47.477Z,49.65
2022-10-14T02:32:47.728Z,49.65
2022-10-14T02:33:47.986Z,49.65
2022-10-14T02:34:48.237Z,49.65
2022-10-14T02:35:48.487Z,49.65
2022-10-14T02:36:48.736Z,49.65
2022-10-14T02:37:48.976Z,49.65
2022-10-14T02:38:49.217Z,49.65
2022-10-14T02:39:49.459Z,49.65
2022-10-14T02:40:49.701Z,49.65
2022-10-14T02:41:49.952Z,49.55
2022-10-14T02:42:50.190Z,49.65
2022-10-14T02:43:50.437Z,49.65
2022-10-14T02:44:50.687Z,49.65
2022-10-14T02:45:50.931Z,49.65
2022-10-14T02:46:51.182Z,49.65
2022-10-14T02:47:51.422Z,49.65
2022-10-14T02:48:51.661Z,49.65
2022-10-14T02:49:51.943Z,49.65
2022-10-14T02:50:52.185Z,49.65
2022-10-14T02:51:52.423Z,49.65
2022-10-14T02:52:52.673Z,49.65
2022-10-14T02:53:52.914Z,49.55
2022-10-14T02:54:53.165Z,49.65
2022-10-14T02:55:53.403Z,49.65
2022-10-14T02:56:53.662Z,49.55
2022-10-14T02:57:53.903Z,49.55
2022-10-14T02:58:54.145Z,49.65
2022-10-14T02:59:54.396Z,49.55
2022-10-14T03:00:54.643Z,49.55
2022-10-14T03:01:54.923Z,49.55
2022-10-14T03:02:55.156Z,49.55
2022-10-14T03:03:55.397Z,49.65
2022-10-14T03:04:55.637Z,49.55
2022-10-14T03:05:55.887Z,49.55
2022-10-14T03:06:56.127Z,49.55
2022-10-14T03:07:56.367Z,49.55
2022-10-14T03:08:56.618Z,49.55
2022-10-14T03:09:56.886Z,49.55
2022-10-14T03:10:57.144Z,49.55
2022-10-14T03:11:57.376Z,49.55
2022-10-14T03:12:57.648Z,49.55
2022-10-14T03:13:57.889Z,49.55
2022-10-14T03:14:58.149Z,49.55
2022-10-14T03:15:58.391Z,49.55
2022-10-14T03:16:58.641Z,49.55
2022-10-14T03:17:58.881Z,49.55
2022-10-14T03:18:59.142Z,49.55
2022-10-14T03:19:59.394Z,49.55
2022-10-14T03:20:59.652Z,49.55
2022-10-14T03:21:59.881Z,49.55
2022-10-14T03:23:00.141Z,49.55
2022-10-14T03:24:00.380Z,49.55
2022-10-14T03:25:00.624Z,49.55
2022-10-14T03:26:00.862Z,49.55
2022-10-14T03:27:01.112Z,49.55
2022-10-14T03:28:01.354Z,49.55
2022-10-14T03:29:01.652Z,49.55
2022-10-14T03:30:01.866Z,49.55
2022-10-14T03:31:02.114Z,49.55
2022-10-14T03:32:02.355Z,49.55
2022-10-14T03:33:02.605Z,49.55
2022-10-14T03:34:02.836Z,49.55
2022-10-14T03:35:03.085Z,49.53
2022-10-14T03:36:03.326Z,49.55
2022-10-14T03:37:03.574Z,49.55
2022-10-14T03:38:03.806Z,49.53
2022-10-14T03:39:04.055Z,49.55
2022-10-14T03:40:04.297Z,49.53
2022-10-14T03:41:04.540Z,49.55
2022-10-14T03:42:04.788Z,49.55
2022-10-14T03:43:05.036Z,49.55
2022-10-14T03:44:05.277Z,49.53
2022-10-14T03:45:05.518Z,49.53
2022-10-14T03:46:05.770Z,49.43
2022-10-14T03:47:06.009Z,49.53
2022-10-14T03:48:06.250Z,49.53
2022-10-14T03:49:06.498Z,49.45
2022-10-14T03:50:06.738Z,49.55
2022-10-14T03:51:06.981Z,49.45
2022-10-14T03:52:07.230Z,49.43
2022-10-14T03:53:07.471Z,49.45
2022-10-14T03:54:07.711Z,49.45
2022-10-14T03:55:07.963Z,49.45
2022-10-14T03:56:08.201Z,49.53
2022-10-14T03:57:08.451Z,49.55
2022-10-14T03:58:08.691Z,49.55
2022-10-14T03:59:08.932Z,49.55
2022-10-14T04:00:09.176Z,49.55
2022-10-14T04:01:09.413Z,49.55
2022-10-14T04:02:09.738Z,49.55
2022-10-14T04:03:09.994Z,49.55
2022-10-14T04:04:10.235Z,49.55
2022-10-14T04:05:10.492Z,49.55
2022-10-14T04:06:10.735Z,49.55
2022-10-14T04:07:10.985Z,49.55
2022-10-14T04:08:11.225Z,49.55
2022-10-14T04:09:11.476Z,49.55
2022-10-14T04:10:11.716Z,49.65
2022-10-14T04:11:11.968Z,49.65
2022-10-14T04:12:12.207Z,49.55
2022-10-14T04:13:12.448Z,49.55
2022-10-14T04:14:12.707Z,49.65
2022-10-14T04:15:12.948Z,49.65
2022-10-14T04:16:13.198Z,49.65
2022-10-14T04:17:13.439Z,49.65
2022-10-14T04:18:13.687Z,49.65
2022-10-14T04:19:13.929Z,49.65
2022-10-14T04:20:14.170Z,49.65
2022-10-14T04:21:14.417Z,49.65
2022-10-14T04:22:14.660Z,49.75
2022-10-14T04:23:14.900Z,49.75
2022-10-14T04:24:15.150Z,49.75
2022-10-14T04:25:15.391Z,49.75
2022-10-14T04:26:15.640Z,49.75
2022-10-14T04:27:15.878Z,49.75
2022-10-14T04:28:16.166Z,49.75
2022-10-14T04:29:16.421Z,49.75
2022-10-14T04:30:16.671Z,49.75
2022-10-14T04:31:16.912Z,49.75
2022-10-14T04:32:17.161Z,49.85
2022-10-14T04:33:17.406Z,49.85
2022-10-14T04:34:17.643Z,49.85
2022-10-14T04:35:17.885Z,49.85
2022-10-14T04:36:18.136Z,49.85
2022-10-14T04:37:18.384Z,49.85
2022-10-14T04:38:18.635Z,49.85
2022-10-14T04:39:18.875Z,49.85
2022-10-14T04:40:19.115Z,49.98
2022-10-14T04:41:19.416Z,49.98
2022-10-14T04:42:20.078Z,49.98
2022-10-14T04:43:19.939Z,49.98
2022-10-14T04:44:20.190Z,49.98
2022-10-14T04:45:20.427Z,49.98
2022-10-14T04:46:20.678Z,49.98
2022-10-14T04:47:20.918Z,49.98
2022-10-14T04:48:21.166Z,49.98
2022-10-14T04:49:21.405Z,49.98
2022-10-14T04:50:21.647Z,49.98
2022-10-14T04:51:21.955Z,49.98
2022-10-14T04:52:22.580Z,50.07
2022-10-14T04:53:22.615Z,50.07
2022-10-14T04:54:22.761Z,49.98
2022-10-14T04:55:22.940Z,50.07
2022-10-14T04:56:23.200Z,50.07
2022-10-14T04:57:23.440Z,50.07
2022-10-14T04:58:23.688Z,50.07
2022-10-14T04:59:23.931Z,50.07
2022-10-14T05:00:24.179Z,50.07
2022-10-14T05:01:24.509Z,50.07
2022-10-14T05:02:25.005Z,50.07
2022-10-14T05:03:25.024Z,50.17
2022-10-14T05:04:25.270Z,50.07
2022-10-14T05:05:25.522Z,50.07
2022-10-14T05:06:25.773Z,50.07
2022-10-14T05:07:26.029Z,50.17
2022-10-14T05:08:26.256Z,50.17
2022-10-14T05:09:26.496Z,50.17
2022-10-14T05:10:26.764Z,50.17
2022-10-14T05:11:27.015Z,50.27
2022-10-14T05:12:27.255Z,50.27
2022-10-14T05:13:27.505Z,50.27
2022-10-14T05:14:27.755Z,50.27
2022-10-14T05:15:28.005Z,50.37
2022-10-14T05:16:28.246Z,50.37
2022-10-14T05:17:28.490Z,50.37
2022-10-14T05:18:28.746Z,50.47
2022-10-14T05:19:29.008Z,50.37
2022-10-14T05:20:29.255Z,50.47
2022-10-14T05:21:29.499Z,50.47
2022-10-14T05:22:29.745Z,50.47
2022-10-14T05:23:29.987Z,50.47
2022-10-14T05:24:30.229Z,50.49
2022-10-14T05:25:30.470Z,50.60
2022-10-14T05:26:30.719Z,50.49
2022-10-14T05:27:30.966Z,50.49
2022-10-14T05:28:31.287Z,50.49
2022-10-14T05:29:31.540Z,50.49
2022-10-14T05:30:34.688Z,50.60
2022-10-14T05:31:32.012Z,50.49
2022-10-14T05:32:32.261Z,50.49
2022-10-14T05:33:32.508Z,50.49
2022-10-14T05:34:32.763Z,50.49
2022-10-14T05:35:57.090Z,50.49
2022-10-14T05:36:34.243Z,50.49
2022-10-14T05:37:33.542Z,50.49
2022-10-14T05:38:33.853Z,50.49
2022-10-14T05:39:34.094Z,50.49
2022-10-14T05:40:35.284Z,50.49
2022-10-14T05:41:34.583Z,50.49
2022-10-14T05:42:34.832Z,50.49
2022-10-14T05:43:35.074Z,50.49
2022-10-14T05:44:35.314Z,50.49
2022-10-14T05:45:35.625Z,50.49
2022-10-14T05:46:35.874Z,50.49
2022-10-14T05:47:36.165Z,50.49
2022-10-14T05:48:36.416Z,50.49
2022-10-14T05:49:36.688Z,50.49
2022-10-14T05:50:36.966Z,50.49
2022-10-14T05:51:37.309Z,50.49
2022-10-14T05:52:37.518Z,50.49
2022-10-14T05:53:37.817Z,50.49
2022-10-14T05:54:38.079Z,50.49
2022-10-14T05:55:38.348Z,50.60
2022-10-14T05:56:38.608Z,50.60
2022-10-14T05:57:38.858Z,50.60
2022-10-14T05:58:39.120Z,50.60
2022-10-14T05:59:39.389Z,50.60
2022-10-14T06:00:39.660Z,50.60
2022-10-14T06:01:39.910Z,50.60
2022-10-14T06:02:40.293Z,50.60
2022-10-14T06:03:40.502Z,50.70
2022-10-14T06:04:40.763Z,50.70
2022-10-14T06:05:41.031Z,50.79
2022-10-14T06:06:41.291Z,50.70
2022-10-14T06:07:41.553Z,50.70
2022-10-14T06:08:41.820Z,50.70
2022-10-14T06:09:42.073Z,50.70
2022-10-14T06:10:42.333Z,50.70
2022-10-14T06:11:42.605Z,50.70
2022-10-14T06:12:42.874Z,50.70
2022-10-14T06:13:43.134Z,50.70
2022-10-14T06:14:43.414Z,50.70
2022-10-14T06:15:43.676Z,50.70
2022-10-14T06:16:43.934Z,50.79
2022-10-14T06:17:44.195Z,50.79
2022-10-14T06:18:44.456Z,50.99
2022-10-14T06:19:44.716Z,50.90
2022-10-14T06:20:44.974Z,50.90
2022-10-14T06:21:45.228Z,50.79
2022-10-14T06:22:45.496Z,50.90
2022-10-14T06:23:45.747Z,50.90
2022-10-14T06:24:46.006Z,50.79
2022-10-14T06:25:46.257Z,50.79
2022-10-14T06:26:46.518Z,50.79
2022-10-14T06:27:46.849Z,50.79
2022-10-14T06:28:47.128Z,50.79
2022-10-14T06:29:47.387Z,50.79
2022-10-14T06:30:47.669Z,50.79
2022-10-14T06:31:47.919Z,50.79
2022-10-14T06:32:48.179Z,50.79
2022-10-14T06:33:48.440Z,50.70
2022-10-14T06:34:48.700Z,50.79
2022-10-14T06:35:48.950Z,50.79
2022-10-14T06:36:49.211Z,50.90
2022-10-14T06:37:49.469Z,50.79
2022-10-14T06:38:49.721Z,50.79
2022-10-14T06:39:49.984Z,50.79
2022-10-14T06:40:50.232Z,50.79
2022-10-14T06:41:50.503Z,50.90
2022-10-14T06:42:50.766Z,50.90
2022-10-14T06:43:51.023Z,50.79
2022-10-14T06:44:51.290Z,50.79
2022-10-14T06:45:51.551Z,50.79
2022-10-14T06:46:51.806Z,50.79
2022-10-14T06:47:52.063Z,50.70
2022-10-14T06:48:52.324Z,50.70
2022-10-14T06:49:52.574Z,50.70
2022-10-14T06:50:52.845Z,50.70
2022-10-14T06:51:53.105Z,50.70
2022-10-14T06:52:53.355Z,50.70
2022-10-14T06:53:53.615Z,50.79
2022-10-14T06:54:53.873Z,50.70
2022-10-14T06:55:54.127Z,50.70
2022-10-14T06:56:54.387Z,50.70
2022-10-14T06:57:54.657Z,50.79
2022-10-14T06:58:54.935Z,50.79
2022-10-14T06:59:55.179Z,50.77
2022-10-14T07:00:55.439Z,50.77
2022-10-14T07:01:55.837Z,50.77
2022-10-14T07:02:55.989Z,50.77
2022-10-14T07:03:56.895Z,50.77
2022-10-14T07:04:56.578Z,50.77
2022-10-14T07:05:56.840Z,50.77
2022-10-14T07:06:57.100Z,50.77
2022-10-14T07:07:57.392Z,50.67
2022-10-14T07:08:57.650Z,50.57
2022-10-14T07:09:57.912Z,50.67
2022-10-14T07:10:58.171Z,50.67
2022-10-14T07:11:58.440Z,50.77
2022-10-14T07:12:58.702Z,50.77
2022-10-14T07:13:58.970Z,50.67
2022-10-14T07:14:59.231Z,50.67
2022-10-14T07:15:59.485Z,50.77
2022-10-14T07:16:59.743Z,50.57
2022-10-14T07:18:00.003Z,50.67
2022-10-14T07:19:00.267Z,50.57
2022-10-14T07:20:00.525Z,50.57
2022-10-14T07:21:00.785Z,50.67
2022-10-14T07:22:01.044Z,50.57
2022-10-14T07:23:01.304Z,50.57
2022-10-14T07:24:01.556Z,50.57
2022-10-14T07:25:01.815Z,50.57
2022-10-14T07:26:02.085Z,50.57
2022-10-14T07:28:02.615Z,50.47
2022-10-14T07:29:02.948Z,50.47
2022-10-14T07:30:03.189Z,50.47
2022-10-14T07:31:03.461Z,50.57
2022-10-14T07:32:03.736Z,50.47
2022-10-14T07:33:03.989Z,50.57
2022-10-14T07:34:04.248Z,50.57
2022-10-14T07:35:04.509Z,50.67
2022-10-14T07:36:04.768Z,50.67
2022-10-14T07:37:05.029Z,50.77
2022-10-14T07:38:05.280Z,50.77
2022-10-14T07:39:05.558Z,50.87
2022-10-14T07:40:05.811Z,50.87
2022-10-14T07:41:06.074Z,50.87
2022-10-14T07:42:06.396Z,50.97
2022-10-14T07:43:06.703Z,51.10
2022-10-14T07:44:06.967Z,50.99
2022-10-14T07:45:07.239Z,51.10
2022-10-14T07:46:07.495Z,51.10
2022-10-14T07:47:07.756Z,50.99
2022-10-14T07:48:08.013Z,51.10
2022-10-14T07:49:08.273Z,51.10
2022-10-14T07:50:08.533Z,51.10
2022-10-14T07:51:08.793Z,51.10
2022-10-14T07:52:09.055Z,51.10
2022-10-14T07:53:09.313Z,51.10
2022-10-14T07:54:09.607Z,51.10
2022-10-14T07:55:09.874Z,51.10
2022-10-14T07:56:10.131Z,51.10
2022-10-14T07:57:10.395Z,50.99
2022-10-14T07:58:10.656Z,51.10
2022-10-14T07:59:10.915Z,51.10
2022-10-14T08:00:11.178Z,50.99
2022-10-14T08:01:11.461Z,50.99
2022-10-14T08:02:11.735Z,50.99
2022-10-14T08:03:12.016Z,50.99
2022-10-14T08:04:12.268Z,50.99
2022-10-14T08:05:36.482Z,50.99
2022-10-14T08:06:13.769Z,50.99
2022-10-14T08:07:13.107Z,50.99
2022-10-14T08:08:13.358Z,50.99
2022-10-14T08:09:13.693Z,51.10
2022-10-14T08:10:13.949Z,51.10
2022-10-14T08:11:14.209Z,50.99
2022-10-14T08:12:14.459Z,50.99
2022-10-14T08:13:14.721Z,50.99
2022-10-14T08:14:14.979Z,50.99
2022-10-14T08:15:15.242Z,50.99
2022-10-14T08:16:15.501Z,50.99
2022-10-14T08:17:15.760Z,50.99
2022-10-14T08:18:16.011Z,50.99
2022-10-14T08:19:16.273Z,50.99
2022-10-14T08:20:16.568Z,51.10
2022-10-14T08:21:16.901Z,50.99
2022-10-14T08:22:17.161Z,50.97
2022-10-14T08:23:19.813Z,50.99
2022-10-14T08:24:17.655Z,50.97
2022-10-14T08:25:17.913Z,50.97
2022-10-14T08:26:18.163Z,50.97
2022-10-14T08:27:18.435Z,50.97
2022-10-14T08:28:18.732Z,50.97
2022-10-14T08:29:18.988Z,50.97
2022-10-14T08:30:19.234Z,50.97
2022-10-14T08:31:19.496Z,50.97
2022-10-14T08:32:20.164Z,50.77
2022-10-14T08:33:20.036Z,50.67
2022-10-14T08:34:20.305Z,50.57
2022-10-14T08:35:20.578Z,50.55
2022-10-14T08:36:20.847Z,50.55
2022-10-14T08:37:21.124Z,50.35
2022-10-14T08:38:21.398Z,50.15
2022-10-14T08:39:21.670Z,50.05
2022-10-14T08:40:22.028Z,49.93
2022-10-14T08:41:22.178Z,49.93
2022-10-14T08:42:22.755Z,49.83
2022-10-14T08:43:22.750Z,49.83
2022-10-14T08:44:23.045Z,49.83
2022-10-14T08:45:23.320Z,49.73
2022-10-14T08:46:23.609Z,49.73
2022-10-14T08:47:23.930Z,49.53
2022-10-14T08:48:24.200Z,49.51
2022-10-14T08:49:24.502Z,49.40
2022-10-14T08:50:24.781Z,49.51
2022-10-14T08:51:25.049Z,49.40
2022-10-14T08:52:25.349Z,49.30
2022-10-14T08:53:25.602Z,49.51
2022-10-14T08:54:25.874Z,49.30
2022-10-14T08:55:26.173Z,49.40
2022-10-14T08:56:26.473Z,49.21
2022-10-14T08:57:26.769Z,48.91
2022-10-14T08:58:27.177Z,48.71
2022-10-14T08:59:27.414Z,48.61
2022-10-14T09:00:27.742Z,48.80
2022-10-14T09:01:28.024Z,48.80
2022-10-14T09:02:28.323Z,49.51
2022-10-14T09:03:28.606Z,49.23
2022-10-14T09:04:28.939Z,50.02
2022-10-14T09:05:29.195Z,50.13
2022-10-14T09:06:29.468Z,49.73
2022-10-14T09:07:29.749Z,49.63
2022-10-14T09:08:30.028Z,49.85
2022-10-14T09:09:30.306Z,50.05
2022-10-14T09:10:30.577Z,49.95
2022-10-14T09:11:33.650Z,49.85
2022-10-14T09:12:31.136Z,49.55
2022-10-14T09:13:31.398Z,49.25
2022-10-14T09:14:31.679Z,50.15
2022-10-14T09:15:31.949Z,49.65
2022-10-14T09:16:32.274Z,49.75
2022-10-14T09:17:35.419Z,50.15
2022-10-14T09:18:33.797Z,49.48
2022-10-14T09:19:33.132Z,49.57
2022-10-14T09:20:33.410Z,50.07
2022-10-14T09:21:47.806Z,49.98
2022-10-14T09:22:34.938Z,49.87
2022-10-14T09:23:34.260Z,49.57
2022-10-14T09:24:34.540Z,49.57
2022-10-14T09:25:34.823Z,49.87
2022-10-14T09:26:35.121Z,50.17
2022-10-14T09:27:35.403Z,49.77
2022-10-14T09:28:35.737Z,49.77
2022-10-14T09:29:35.994Z,50.20
2022-10-14T09:30:36.284Z,50.20
2022-10-14T09:31:36.568Z,50.49
2022-10-14T09:32:36.845Z,50.40
2022-10-14T09:33:39.713Z,50.20
2022-10-14T09:34:38.362Z,50.30
2022-10-14T09:35:37.687Z,50.20
2022-10-14T09:36:37.965Z,50.49
2022-10-14T09:37:38.236Z,50.52
2022-10-14T09:38:38.507Z,50.62
2022-10-14T09:39:38.785Z,50.82
2022-10-14T09:40:39.057Z,50.82
2022-10-14T09:41:39.335Z,51.52
2022-10-14T09:42:39.617Z,51.22
2022-10-14T09:43:39.922Z,51.22
2022-10-14T09:44:40.169Z,51.15
2022-10-14T09:45:40.439Z,51.54
2022-10-14T09:46:40.709Z,51.75
2022-10-14T09:47:40.988Z,51.94
2022-10-14T09:48:41.259Z,52.14
2022-10-14T09:49:41.529Z,52.34
2022-10-14T09:50:41.799Z,52.14
2022-10-14T09:51:42.070Z,52.25
2022-10-14T09:52:42.352Z,51.84
2022-10-14T09:53:42.591Z,51.45
2022-10-14T09:54:42.892Z,51.47
2022-10-14T09:55:43.169Z,51.87
2022-10-14T09:56:43.391Z,51.87
2022-10-14T09:57:43.669Z,51.27
2022-10-14T09:58:43.943Z,51.17
2022-10-14T09:59:44.213Z,51.37
2022-10-14T10:00:44.492Z,51.67
2022-10-14T10:01:44.763Z,50.97
2022-10-14T10:02:45.042Z,51.17
2022-10-14T10:03:45.434Z,51.27
2022-10-14T10:04:45.613Z,51.47
2022-10-14T10:05:45.877Z,51.37
2022-10-14T10:06:46.153Z,51.07
2022-10-14T10:07:46.425Z,51.57
2022-10-14T10:08:46.685Z,51.87
2022-10-14T10:09:46.936Z,52.07
2022-10-14T10:10:47.196Z,51.87
2022-10-14T10:11:47.455Z,51.67
2022-10-14T10:12:47.727Z,51.27
2022-10-14T10:13:47.999Z,50.87
2022-10-14T10:14:48.260Z,50.97
2022-10-14T10:15:48.517Z,51.54
2022-10-14T10:16:48.777Z,51.25
2022-10-14T10:17:49.057Z,50.95
2022-10-14T10:18:49.328Z,51.84
2022-10-14T10:19:49.597Z,51.75
2022-10-14T10:20:49.847Z,51.75
2022-10-14T10:21:51.083Z,51.15
2022-10-14T10:22:50.405Z,50.95
2022-10-14T10:23:50.649Z,50.84
2022-10-14T10:24:50.911Z,50.74
2022-10-14T10:25:51.178Z,50.67
2022-10-14T10:26:51.438Z,50.77
2022-10-14T10:27:51.691Z,50.57
2022-10-14T10:28:52.031Z,50.47
2022-10-14T10:29:52.332Z,50.57
2022-10-14T10:30:52.595Z,50.47
2022-10-14T10:31:52.851Z,50.17
2022-10-14T10:32:53.142Z,50.07
2022-10-14T10:33:53.402Z,50.09
2022-10-14T10:34:53.663Z,50.09
2022-10-14T10:35:53.913Z,50.29
2022-10-14T10:36:54.174Z,50.29
2022-10-14T10:37:54.434Z,50.20
2022-10-14T10:38:54.694Z,49.99
2022-10-14T10:39:54.953Z,49.90
2022-10-14T10:40:55.265Z,49.69
2022-10-14T10:41:55.524Z,49.49
2022-10-14T10:42:55.783Z,49.99
2022-10-14T10:43:56.036Z,49.99
2022-10-14T10:44:56.334Z,50.39
2022-10-14T10:45:56.624Z,50.39
2022-10-14T10:46:56.994Z,50.29
2022-10-14T10:47:57.155Z,50.39
2022-10-14T10:48:57.446Z,50.49
2022-10-14T10:49:57.743Z,50.20
2022-10-14T10:50:58.045Z,50.20
2022-10-14T10:51:58.315Z,50.20
2022-10-14T10:52:58.626Z,50.49
2022-10-14T10:53:58.914Z,50.12
2022-10-14T10:54:59.214Z,49.41
2022-10-14T10:55:59.489Z,49.72
2022-10-14T10:56:59.786Z,49.62
2022-10-14T10:58:02.525Z,49.52
2022-10-14T10:59:00.347Z,49.41
2022-10-14T11:00:00.626Z,49.72
2022-10-14T11:01:00.959Z,50.32
2022-10-14T11:02:01.207Z,50.32
2022-10-14T11:03:01.508Z,50.02
2022-10-14T11:04:01.788Z,50.02
2022-10-14T11:05:02.082Z,50.72
2022-10-14T11:06:02.360Z,50.39
2022-10-14T11:07:02.654Z,49.99
2022-10-14T11:08:02.940Z,50.09
2022-10-14T11:09:03.238Z,49.69
2022-10-14T11:10:03.510Z,49.29
2022-10-14T11:11:03.815Z,49.49
2022-10-14T11:12:04.089Z,49.19
2022-10-14T11:13:04.391Z,49.40
2022-10-14T11:14:04.662Z,49.40
2022-10-14T11:15:05.018Z,49.29
2022-10-14T11:16:05.183Z,49.09
2022-10-14T11:17:05.481Z,49.29
2022-10-14T11:18:05.795Z,49.29
2022-10-14T11:19:07.075Z,49.27
2022-10-14T11:20:06.365Z,49.37
2022-10-14T11:21:06.663Z,49.57
2022-10-14T11:22:06.935Z,49.57
2022-10-14T11:23:07.235Z,49.49
2022-10-14T11:24:07.556Z,49.40
2022-10-14T11:25:07.834Z,49.29
2022-10-14T11:26:08.097Z,48.90
2022-10-14T11:27:08.387Z,49.09
2022-10-14T11:28:08.678Z,49.29
2022-10-14T11:29:08.957Z,49.11
2022-10-14T11:30:09.236Z,49.41
2022-10-14T11:31:09.509Z,49.22
2022-10-14T11:32:09.797Z,49.02
2022-10-14T11:33:10.077Z,49.11
2022-10-14T11:34:10.347Z,49.22
2022-10-14T11:35:10.628Z,49.22
2022-10-14T11:36:10.904Z,49.11
2022-10-14T11:37:11.179Z,49.11
2022-10-14T11:38:11.449Z,49.11
2022-10-14T11:39:11.703Z,49.32
2022-10-14T11:40:11.964Z,49.22
2022-10-14T11:41:12.224Z,49.22
2022-10-14T11:42:12.474Z,49.41
2022-10-14T11:43:12.744Z,49.82
2022-10-14T11:44:13.007Z,49.82
2022-10-14T11:45:16.007Z,49.64
2022-10-14T11:46:14.527Z,49.64
2022-10-14T11:47:13.846Z,49.54
2022-10-14T11:48:14.104Z,49.54
2022-10-14T11:49:14.359Z,49.74
2022-10-14T11:50:14.667Z,49.64
2022-10-14T11:51:14.906Z,49.72
2022-10-14T11:52:15.190Z,49.62
2022-10-14T11:53:15.462Z,49.74
2022-10-14T11:54:15.718Z,49.72
2022-10-14T11:55:15.979Z,49.62
2022-10-14T11:56:16.229Z,49.62
2022-10-14T11:57:16.489Z,49.62
2022-10-14T11:58:16.748Z,49.62
2022-10-14T11:59:17.008Z,49.82
2022-10-14T12:00:17.315Z,50.02
2022-10-14T12:01:17.560Z,49.91
2022-10-14T12:02:17.901Z,49.72
2022-10-14T12:03:18.137Z,49.52
2022-10-14T12:04:18.390Z,49.62
2022-10-14T12:05:18.701Z,49.72
2022-10-14T12:06:18.963Z,49.52
2022-10-14T12:07:19.212Z,49.62
2022-10-14T12:08:19.472Z,49.62
2022-10-14T12:09:19.733Z,49.82
2022-10-14T12:10:19.993Z,49.62
2022-10-14T12:11:20.264Z,49.62
2022-10-14T12:12:20.827Z,49.72
2022-10-14T12:13:20.833Z,49.82
2022-10-14T12:14:21.095Z,49.62
2022-10-14T12:15:21.376Z,49.72
2022-10-14T12:16:21.646Z,49.72
2022-10-14T12:17:22.302Z,49.41
2022-10-14T12:18:22.207Z,49.32
2022-10-14T12:19:22.467Z,49.62
2022-10-14T12:20:22.726Z,50.09
2022-10-14T12:21:22.994Z,49.69
2022-10-14T12:22:23.682Z,49.29
2022-10-14T12:23:23.577Z,49.29
2022-10-14T12:24:23.837Z,49.49
2022-10-14T12:25:24.110Z,49.49
2022-10-14T12:26:24.392Z,49.49
2022-10-14T12:27:24.710Z,49.57
2022-10-14T12:28:25.004Z,49.57
2022-10-14T12:29:25.238Z,49.57
2022-10-14T12:30:25.500Z,49.47
2022-10-14T12:31:25.761Z,49.37
2022-10-14T12:32:26.394Z,49.27
2022-10-14T12:33:26.261Z,49.15
2022-10-14T12:34:26.523Z,49.15
2022-10-14T12:35:26.772Z,49.05
2022-10-14T12:36:27.058Z,49.05
2022-10-14T12:37:30.728Z,48.94
2022-10-14T12:38:27.602Z,48.94
2022-10-14T12:39:27.889Z,48.85
2022-10-14T12:40:28.143Z,48.75
2022-10-14T12:41:28.394Z,48.65
2022-10-14T12:42:28.750Z,48.52
2022-10-14T12:43:28.983Z,48.52
2022-10-14T12:44:29.245Z,48.43
2022-10-14T12:45:29.546Z,48.43
2022-10-14T12:46:29.775Z,48.43
2022-10-14T12:47:30.035Z,48.32
2022-10-14T12:48:30.295Z,48.32
2022-10-14T12:49:30.554Z,48.32
2022-10-14T12:50:30.807Z,48.22
2022-10-14T12:51:31.064Z,48.22
2022-10-14T12:52:31.316Z,48.13
2022-10-14T12:53:31.587Z,48.13
2022-10-14T12:54:31.836Z,48.13
2022-10-14T12:55:32.109Z,48.13
2022-10-14T12:56:32.353Z,48.00